Time;durP1;ratioP1;P1;durP2;ratioP2;P2;SDS_P1;SDS_P2;PMS_P1;PMS_P2;Temp;Humidity;BMP_temperature;BMP_pressure;BME280_temperature;BME280_humidity;BME280_pressure;Samples;Min_cycle;Max_cycle;Signal;HPM_P1;HPM_P2
2022/09/02 00:00:22;;;;;;;2.90;2.33;;;18.60;92.30;;;;;;6249916;28;20232;-68
2022/09/02 00:03:26;;;;;;;2.00;1.90;;;18.60;92.60;;;;;;6250211;28;20246;-68
2022/09/02 00:06:30;;;;;;;2.27;1.87;;;18.50;93.00;;;;;;6249645;28;20244;-67
2022/09/02 00:09:36;;;;;;;3.40;2.20;;;18.50;92.90;;;;;;6249713;28;20660;-68
2022/09/02 00:12:39;;;;;;;2.30;1.93;;;18.40;93.30;;;;;;6252074;28;20548;-68
2022/09/02 00:15:43;;;;;;;2.23;1.97;;;18.40;93.30;;;;;;6252472;28;20247;-68
2022/09/02 00:18:47;;;;;;;3.73;2.20;;;18.40;93.40;;;;;;6251962;28;20247;-68
2022/09/02 00:21:51;;;;;;;2.17;1.97;;;18.40;93.60;;;;;;6242431;28;20236;-67
2022/09/02 00:24:55;;;;;;;3.43;2.40;;;18.40;94.00;;;;;;6251489;28;20307;-67
2022/09/02 00:27:58;;;;;;;2.67;1.73;;;18.40;94.20;;;;;;6250225;28;20224;-68
2022/09/02 00:31:02;;;;;;;2.80;1.80;;;18.40;94.30;;;;;;6250308;28;20709;-68
2022/09/02 00:34:05;;;;;;;3.13;1.97;;;18.50;94.40;;;;;;6250400;28;20235;-67
2022/09/02 00:37:09;;;;;;;3.73;2.23;;;18.40;94.90;;;;;;6251697;28;20228;-68
2022/09/02 00:40:14;;;;;;;2.33;1.70;;;18.40;95.10;;;;;;6252149;28;20237;-68
2022/09/02 00:43:25;;;;;;;1.87;1.60;;;18.40;95.40;;;;;;6252319;28;20540;-68
2022/09/02 00:46:30;;;;;;;2.73;2.20;;;18.40;95.40;;;;;;6250663;28;20486;-67
2022/09/02 00:49:38;;;;;;;3.10;2.00;;;18.40;95.80;;;;;;6251144;28;20239;-67
2022/09/02 00:52:44;;;;;;;3.97;2.33;;;18.40;96.10;;;;;;6250013;28;20486;-67
2022/09/02 00:55:51;;;;;;;3.20;2.07;;;18.30;96.30;;;;;;6248678;28;20250;-67
2022/09/02 00:58:56;;;;;;;2.70;2.03;;;18.20;96.70;;;;;;6248545;28;20244;-68
2022/09/02 01:01:59;;;;;;;3.60;1.80;;;18.30;96.90;;;;;;6250186;28;20479;-67
2022/09/02 01:05:06;;;;;;;2.20;2.00;;;18.20;96.20;;;;;;6250453;28;20696;-67
2022/09/02 01:08:09;;;;;;;2.00;1.90;;;18.20;96.20;;;;;;6250528;28;20479;-67
2022/09/02 01:11:15;;;;;;;1.90;1.70;;;18.20;96.20;;;;;;6250783;28;20247;-68
2022/09/02 01:14:18;;;;;;;2.13;1.93;;;18.10;96.40;;;;;;6250273;28;20479;-68
2022/09/02 01:17:21;;;;;;;3.10;2.27;;;18.00;96.60;;;;;;6248744;28;20471;-67
2022/09/02 01:20:26;;;;;;;1.73;1.60;;;18.00;96.90;;;;;;6248414;28;20477;-68
2022/09/02 01:23:32;;;;;;;2.13;1.90;;;18.00;96.90;;;;;;6248253;28;20234;-68
2022/09/02 01:26:36;;;;;;;3.20;2.27;;;18.10;97.00;;;;;;6249657;28;20467;-68
2022/09/02 01:29:39;;;;;;;5.97;1.90;;;18.10;97.00;;;;;;6250515;28;20443;-68
2022/09/02 01:32:43;;;;;;;2.70;1.80;;;18.10;97.10;;;;;;6249695;28;20520;-68
2022/09/02 01:35:46;;;;;;;3.03;1.80;;;18.10;97.30;;;;;;6250398;28;20459;-68
2022/09/02 01:38:50;;;;;;;1.73;1.63;;;18.10;97.50;;;;;;6250284;28;20773;-68
2022/09/02 01:41:54;;;;;;;2.33;1.97;;;18.10;97.50;;;;;;6249161;28;20459;-68
2022/09/02 01:44:57;;;;;;;2.53;1.77;;;18.10;97.30;;;;;;6247750;28;21117;-67
2022/09/02 01:48:01;;;;;;;3.07;1.83;;;18.10;97.40;;;;;;6247997;28;20467;-68
2022/09/02 01:51:04;;;;;;;2.10;1.90;;;18.10;97.40;;;;;;6248865;28;20463;-68
2022/09/02 01:54:09;;;;;;;3.30;2.30;;;18.10;97.40;;;;;;6249950;28;20470;-68
2022/09/02 01:57:13;;;;;;;1.93;1.77;;;18.00;97.60;;;;;;6249616;28;20482;-67
2022/09/02 02:00:17;;;;;;;2.73;1.73;;;18.00;97.90;;;;;;6250136;28;20471;-67
2022/09/02 02:03:20;;;;;;;2.20;1.70;;;18.00;98.10;;;;;;6254590;28;20467;-67
2022/09/02 02:06:23;;;;;;;2.50;1.90;;;18.10;98.30;;;;;;6254179;28;20488;-68
2022/09/02 02:09:28;;;;;;;3.67;1.93;;;18.00;98.10;;;;;;6253084;28;20501;-68
2022/09/02 02:12:31;;;;;;;4.50;2.10;;;18.00;98.10;;;;;;6252920;28;20475;-68
2022/09/02 02:15:37;;;;;;;4.03;1.93;;;18.00;98.20;;;;;;6253455;28;20683;-67
2022/09/02 02:18:40;;;;;;;4.03;2.20;;;18.00;98.30;;;;;;6254634;28;20475;-71
2022/09/02 02:21:43;;;;;;;4.00;1.70;;;18.00;98.50;;;;;;6254726;28;20490;-68
2022/09/02 02:24:47;;;;;;;2.33;1.90;;;18.00;98.70;;;;;;6254259;28;20478;-67
2022/09/02 02:27:51;;;;;;;3.00;1.80;;;18.00;99.00;;;;;;6254552;28;20471;-68
2022/09/02 02:30:55;;;;;;;3.10;2.00;;;18.00;99.10;;;;;;6252886;28;20482;-68
2022/09/02 02:33:58;;;;;;;2.77;2.57;;;18.00;98.90;;;;;;6252197;28;20474;-68
2022/09/02 02:37:01;;;;;;;1.80;1.70;;;17.90;98.90;;;;;;6252108;28;20232;-67
2022/09/02 02:40:07;;;;;;;2.10;1.90;;;17.90;98.90;;;;;;6253317;28;20475;-67
2022/09/02 02:43:10;;;;;;;2.60;2.07;;;17.80;99.00;;;;;;6253732;28;20478;-67
2022/09/02 02:46:14;;;;;;;3.10;1.80;;;17.90;99.10;;;;;;6253630;28;20494;-67
2022/09/02 02:49:17;;;;;;;1.70;1.60;;;17.90;99.10;;;;;;6253697;28;20467;-67
2022/09/02 02:52:20;;;;;;;1.50;1.40;;;17.80;99.10;;;;;;6253875;28;20478;-67
2022/09/02 02:55:25;;;;;;;3.10;1.93;;;17.80;99.10;;;;;;6252475;28;20475;-67
2022/09/02 02:58:29;;;;;;;2.10;2.00;;;17.80;99.30;;;;;;6252023;28;20478;-68
2022/09/02 03:01:33;;;;;;;4.90;1.83;;;17.80;99.40;;;;;;6251963;28;20459;-68
2022/09/02 03:04:38;;;;;;;3.47;2.10;;;17.80;99.50;;;;;;6252571;28;20467;-66
2022/09/02 03:07:41;;;;;;;6.70;2.40;;;17.70;99.70;;;;;;6253527;28;20471;-67
2022/09/02 03:10:46;;;;;;;2.20;2.00;;;17.80;99.90;;;;;;6254289;28;20826;-67
2022/09/02 03:13:50;;;;;;;3.93;1.90;;;17.70;99.90;;;;;;6252944;28;20463;-67
2022/09/02 03:16:53;;;;;;;1.97;1.77;;;17.80;99.90;;;;;;6253198;28;20474;-66
2022/09/02 03:19:58;;;;;;;2.33;2.10;;;17.70;99.90;;;;;;6251486;28;20471;-67
2022/09/02 03:23:02;;;;;;;3.43;1.87;;;17.70;99.90;;;;;;6250983;28;20232;-67
2022/09/02 03:26:11;;;;;;;4.40;2.40;;;17.70;99.90;;;;;;6250798;28;20987;-67
2022/09/02 03:29:14;;;;;;;2.33;1.97;;;17.70;99.90;;;;;;6252028;28;20478;-67
2022/09/02 03:32:17;;;;;;;2.80;2.50;;;17.70;99.90;;;;;;6252785;28;20467;-67
2022/09/02 03:35:22;;;;;;;2.93;2.00;;;17.70;99.90;;;;;;6248087;28;20479;-67
2022/09/02 03:38:25;;;;;;;4.27;1.93;;;17.60;99.90;;;;;;6252146;28;20494;-67
2022/09/02 03:41:30;;;;;;;1.43;1.33;;;17.60;99.90;;;;;;6252693;28;20482;-67
2022/09/02 03:44:34;;;;;;;2.17;2.00;;;17.60;99.90;;;;;;6250314;28;20475;-66
2022/09/02 03:47:39;;;;;;;1.80;1.70;;;17.60;99.90;;;;;;6250731;28;20451;-67
2022/09/02 03:50:45;;;;;;;1.90;1.40;;;17.60;99.90;;;;;;6250452;28;20434;-67
2022/09/02 03:53:49;;;;;;;2.10;1.90;;;17.60;99.90;;;;;;6251718;28;20420;-67
2022/09/02 03:56:53;;;;;;;3.83;2.00;;;17.60;99.90;;;;;;6252084;28;20463;-67
2022/09/02 03:59:57;;;;;;;3.20;1.97;;;17.60;99.90;;;;;;6252635;28;20459;-67
2022/09/02 04:03:02;;;;;;;4.03;2.00;;;17.60;99.90;;;;;;6252160;28;20460;-67
2022/09/02 04:06:09;;;;;;;5.13;2.23;;;17.50;99.90;;;;;;6252236;28;20495;-67
2022/09/02 04:09:12;;;;;;;3.80;2.20;;;17.50;99.90;;;;;;6249926;28;20862;-67
2022/09/02 04:12:16;;;;;;;3.00;1.90;;;17.40;99.90;;;;;;6250064;28;20463;-68
2022/09/02 04:15:20;;;;;;;3.00;2.20;;;17.40;99.90;;;;;;6249386;28;20486;-67
2022/09/02 04:18:23;;;;;;;2.80;2.20;;;17.40;99.90;;;;;;6251208;28;20978;-67
2022/09/02 04:21:32;;;;;;;2.30;2.10;;;17.40;99.90;;;;;;6251486;28;20828;-68
2022/09/02 04:24:35;;;;;;;2.57;2.37;;;17.40;99.90;;;;;;6250377;28;20931;-67
2022/09/02 04:27:40;;;;;;;3.40;2.20;;;17.40;99.90;;;;;;6251298;28;20479;-67
2022/09/02 04:30:44;;;;;;;2.20;2.10;;;17.40;99.90;;;;;;6251124;28;20773;-67
2022/09/02 04:33:47;;;;;;;2.40;2.20;;;17.40;99.90;;;;;;6249517;28;20471;-68
2022/09/02 04:36:51;;;;;;;3.63;2.60;;;17.40;99.90;;;;;;6249139;28;20482;-67
2022/09/02 04:39:56;;;;;;;2.40;2.20;;;17.40;99.90;;;;;;6244434;28;20981;-67
2022/09/02 04:43:01;;;;;;;2.70;2.50;;;17.40;99.90;;;;;;6250679;28;20498;-67
2022/09/02 04:46:05;;;;;;;2.83;2.57;;;17.40;99.90;;;;;;6250742;28;20476;-67
2022/09/02 04:49:09;;;;;;;3.50;2.47;;;17.40;99.90;;;;;;6250857;28;20486;-68
2022/09/02 04:52:12;;;;;;;2.20;2.00;;;17.40;99.90;;;;;;6250673;28;20621;-67
2022/09/02 04:55:16;;;;;;;2.10;1.90;;;17.40;99.90;;;;;;6250512;28;20471;-66
2022/09/02 04:58:20;;;;;;;8.40;2.77;;;17.40;99.90;;;;;;6248783;28;20467;-67
2022/09/02 05:01:25;;;;;;;4.87;2.67;;;17.40;99.90;;;;;;6249307;28;20482;-67
2022/09/02 05:04:30;;;;;;;2.43;2.17;;;17.50;99.90;;;;;;6251038;28;20471;-66
2022/09/02 05:07:35;;;;;;;4.80;2.33;;;17.50;99.90;;;;;;6251567;28;20489;-66
2022/09/02 05:10:40;;;;;;;3.43;3.17;;;17.50;99.90;;;;;;6252708;28;20485;-67
2022/09/02 05:13:47;;;;;;;5.00;2.70;;;17.50;99.90;;;;;;6252136;28;20473;-67
2022/09/02 05:16:52;;;;;;;5.17;3.10;;;17.60;99.90;;;;;;6250612;28;20475;-66
2022/09/02 05:19:55;;;;;;;7.20;2.90;;;17.60;99.90;;;;;;6250532;28;20566;-67
2022/09/02 05:22:58;;;;;;;6.13;2.97;;;17.60;99.90;;;;;;6250057;28;20493;-67
2022/09/02 05:26:03;;;;;;;2.93;2.20;;;17.80;99.90;;;;;;6250283;28;20471;-67
2022/09/02 05:29:08;;;;;;;6.67;2.80;;;17.70;99.90;;;;;;6249900;28;20471;-67
2022/09/02 05:32:11;;;;;;;5.40;3.10;;;17.80;99.90;;;;;;6249094;28;20232;-67
2022/09/02 05:35:15;;;;;;;4.17;2.83;;;17.80;99.90;;;;;;6248663;28;20482;-67
2022/09/02 05:38:18;;;;;;;2.77;2.57;;;18.00;99.90;;;;;;6249311;28;20489;-68
2022/09/02 05:41:23;;;;;;;2.77;2.37;;;18.10;99.90;;;;;;6249332;28;20475;-68
2022/09/02 05:44:30;;;;;;;3.63;2.60;;;18.20;99.90;;;;;;6243843;28;20483;-66
2022/09/02 05:47:33;;;;;;;2.73;2.50;;;18.40;99.90;;;;;;6248879;28;20253;-67
2022/09/02 05:50:37;;;;;;;2.40;2.20;;;18.50;99.90;;;;;;6249747;28;20228;-67
2022/09/02 05:53:40;;;;;;;6.10;2.30;;;18.60;99.70;;;;;;6250247;28;20591;-68
2022/09/02 05:56:46;;;;;;;2.90;2.07;;;18.70;98.20;;;;;;6250454;28;20227;-67
2022/09/02 05:59:54;;;;;;;10.93;3.00;;;18.90;97.70;;;;;;6250405;28;20200;-67
2022/09/02 06:02:58;;;;;;;2.53;2.33;;;19.10;96.40;;;;;;6250184;28;20228;-67
2022/09/02 06:06:01;;;;;;;3.20;2.77;;;19.20;96.90;;;;;;6249337;28;20567;-68
2022/09/02 06:09:11;;;;;;;2.90;2.53;;;19.30;97.00;;;;;;6250316;28;20239;-67
2022/09/02 06:12:17;;;;;;;7.87;3.07;;;19.60;96.90;;;;;;6249368;28;20810;-67
2022/09/02 06:15:22;;;;;;;4.20;2.33;;;20.60;95.00;;;;;;6249815;28;20228;-67
2022/09/02 06:18:25;;;;;;;3.57;2.53;;;21.90;92.50;;;;;;6249776;28;20242;-68
2022/09/02 06:21:29;;;;;;;2.20;1.97;;;23.10;89.40;;;;;;6249307;28;20228;-68
2022/09/02 06:24:32;;;;;;;3.00;2.10;;;24.20;84.30;;;;;;6249134;28;20579;-67
2022/09/02 06:27:37;;;;;;;7.13;2.60;;;25.30;79.50;;;;;;6249118;28;20242;-68
2022/09/02 06:30:45;;;;;;;3.10;2.27;;;26.10;73.10;;;;;;6249799;28;20254;-68
2022/09/02 06:33:51;;;;;;;3.13;2.10;;;27.10;65.70;;;;;;6248724;28;20223;-68
2022/09/02 06:36:56;;;;;;;3.20;2.10;;;28.20;59.40;;;;;;6249263;28;20243;-68
2022/09/02 06:40:00;;;;;;;3.30;2.03;;;28.90;58.20;;;;;;6249120;28;20232;-68
2022/09/02 06:43:03;;;;;;;2.97;2.37;;;29.70;54.50;;;;;;6249537;28;20719;-67
2022/09/02 06:46:08;;;;;;;2.23;2.03;;;29.90;52.10;;;;;;6239959;28;20266;-67
2022/09/02 06:49:15;;;;;;;4.53;2.47;;;29.60;50.80;;;;;;6252463;28;20684;-67
2022/09/02 06:52:18;;;;;;;2.30;2.10;;;29.00;50.90;;;;;;6253649;28;20223;-67
2022/09/02 06:55:21;;;;;;;2.63;1.87;;;29.00;51.10;;;;;;6253622;28;20231;-67
2022/09/02 06:58:24;;;;;;;4.43;2.90;;;29.30;49.10;;;;;;6253497;28;20227;-67
2022/09/02 07:01:31;;;;;;;2.90;2.60;;;30.40;48.80;;;;;;6253506;28;20228;-67
2022/09/02 07:07:59;;;;;;;3.03;2.20;;;32.50;44.40;;;;;;6252949;28;20238;-67
2022/09/02 07:11:02;;;;;;;3.35;2.22;;;32.80;42.60;;;;;;6253147;28;20242;-67
2022/09/02 07:14:06;;;;;;;2.28;2.00;;;33.10;41.10;;;;;;6253264;28;20227;-68
2022/09/02 07:17:16;;;;;;;5.60;2.88;;;33.10;41.30;;;;;;6252819;28;20238;-68
2022/09/02 07:20:19;;;;;;;2.60;2.22;;;33.10;40.20;;;;;;6253202;28;20224;-68
2022/09/02 07:23:22;;;;;;;3.92;2.33;;;32.20;41.50;;;;;;6252642;28;20235;-68
2022/09/02 07:26:27;;;;;;;2.60;2.03;;;33.70;39.80;;;;;;6252738;28;20327;-68
2022/09/02 07:29:31;;;;;;;3.67;1.80;;;35.40;37.30;;;;;;6252672;28;20714;-68
2022/09/02 07:32:35;;;;;;;1.83;1.42;;;36.80;35.20;;;;;;6252227;28;20234;-68
2022/09/02 07:35:40;;;;;;;1.92;1.75;;;36.90;33.90;;;;;;6253209;28;20220;-68
2022/09/02 07:38:43;;;;;;;2.03;1.42;;;37.70;32.60;;;;;;6252688;28;20525;-68
2022/09/02 07:41:49;;;;;;;2.00;1.70;;;38.50;31.60;;;;;;6252574;28;20227;-68
2022/09/02 07:44:53;;;;;;;2.22;1.90;;;38.20;30.30;;;;;;6252012;28;20238;-68
2022/09/02 07:47:58;;;;;;;1.58;1.48;;;37.10;30.90;;;;;;6243706;28;20216;-68
2022/09/02 07:51:02;;;;;;;2.25;1.63;;;36.50;32.40;;;;;;6252277;28;20228;-68
2022/09/02 07:54:06;;;;;;;2.42;1.80;;;37.80;31.70;;;;;;6252476;28;20224;-68
2022/09/02 07:57:09;;;;;;;2.97;1.80;;;38.10;30.70;;;;;;6252411;28;20244;-68
2022/09/02 08:00:15;;;;;;;2.22;1.38;;;40.00;29.30;;;;;;6252195;28;20239;-68
2022/09/02 08:03:20;;;;;;;3.92;2.40;;;40.90;28.10;;;;;;6251983;28;20238;-68
2022/09/02 08:06:26;;;;;;;2.13;1.92;;;40.50;27.40;;;;;;6251850;28;20243;-68
2022/09/02 08:09:37;;;;;;;2.83;1.83;;;40.90;27.20;;;;;;6251587;28;20231;-68
2022/09/02 08:12:42;;;;;;;2.53;1.70;;;41.20;26.60;;;;;;6252029;28;20254;-68
2022/09/02 08:15:45;;;;;;;2.72;1.13;;;41.20;26.30;;;;;;6251500;28;20239;-68
2022/09/02 08:18:54;;;;;;;2.17;1.98;;;42.80;25.80;;;;;;6251800;28;20306;-68
2022/09/02 08:22:02;;;;;;;2.08;1.88;;;43.40;24.90;;;;;;6251671;28;20231;-68
2022/09/02 08:25:07;;;;;;;3.33;3.13;;;44.60;23.70;;;;;;6251424;28;20223;-68
2022/09/02 08:28:10;;;;;;;2.28;1.50;;;45.50;22.40;;;;;;6250985;28;20247;-68
2022/09/02 08:31:13;;;;;;;1.70;1.60;;;45.70;21.20;;;;;;6251508;28;20231;-68
2022/09/02 08:34:18;;;;;;;2.47;1.40;;;45.50;20.00;;;;;;6251342;28;20232;-68
2022/09/02 08:37:21;;;;;;;1.95;1.30;;;45.40;20.40;;;;;;6251090;28;20224;-68
2022/09/02 08:40:32;;;;;;;2.75;1.65;;;44.80;21.00;;;;;;6251112;28;20233;-68
2022/09/02 08:43:39;;;;;;;2.28;1.60;;;45.90;20.40;;;;;;6250775;28;20251;-68
2022/09/02 08:46:43;;;;;;;1.95;1.40;;;46.90;20.40;;;;;;6250693;28;20301;-68
2022/09/02 08:49:51;;;;;;;1.30;1.20;;;47.50;19.50;;;;;;6250755;28;20224;-68
2022/09/02 08:53:01;;;;;;;2.53;2.30;;;47.90;17.90;;;;;;6246802;28;20238;-68
2022/09/02 08:56:08;;;;;;;3.33;2.72;;;48.90;17.60;;;;;;6255485;28;20231;-70
2022/09/02 08:59:13;;;;;;;2.65;1.95;;;49.80;17.00;;;;;;6262594;28;20229;-70
2022/09/02 09:02:24;;;;;;;2.42;1.50;;;50.50;16.90;;;;;;6260001;28;20223;-71
2022/09/02 09:05:42;;;;;;;1.35;1.10;;;51.10;16.30;;;;;;6273091;28;20224;-71
2022/09/02 09:08:52;;;;;;;2.00;1.80;;;51.10;16.50;;;;;;6260604;28;20210;-71
2022/09/02 09:12:06;;;;;;;7.20;2.80;;;51.90;16.60;;;;;;6262834;28;20200;-71
2022/09/02 09:15:13;;;;;;;2.33;1.30;;;52.30;15.60;;;;;;6261176;28;20232;-69
2022/09/02 09:18:19;;;;;;;5.47;2.20;;;50.80;15.80;;;;;;6260046;28;20230;-70
2022/09/02 09:21:24;;;;;;;2.13;1.65;;;50.60;15.50;;;;;;6249984;28;20313;-69
2022/09/02 09:24:35;;;;;;;1.55;1.33;;;50.20;15.60;;;;;;6260217;28;20228;-70
2022/09/02 09:27:38;;;;;;;1.30;1.05;;;47.60;16.30;;;;;;6274690;28;20244;-68
2022/09/02 09:30:42;;;;;;;2.13;1.23;;;47.10;16.50;;;;;;6269070;28;20223;-70
2022/09/02 09:33:59;;;;;;;2.47;1.02;;;45.50;17.50;;;;;;6254060;28;20587;-69
2022/09/02 09:37:03;;;;;;;1.60;1.35;;;44.00;18.70;;;;;;6249858;28;20238;-69
2022/09/02 09:40:30;;;;;;;2.45;1.25;;;45.20;18.60;;;;;;6249634;28;20228;-69
2022/09/02 09:43:33;;;;;;;1.40;1.20;;;46.00;18.10;;;;;;6249691;28;20738;-70
2022/09/02 09:46:36;;;;;;;1.73;1.38;;;45.90;18.10;;;;;;6249619;28;20247;-69
2022/09/02 09:49:40;;;;;;;1.35;1.25;;;44.60;18.30;;;;;;6250098;28;20232;-70
2022/09/02 09:52:46;;;;;;;1.90;1.70;;;43.40;19.10;;;;;;6249829;28;20311;-70
2022/09/02 09:55:52;;;;;;;1.40;1.17;;;41.70;20.20;;;;;;6249949;28;20259;-70
2022/09/02 09:58:55;;;;;;;2.03;1.27;;;40.30;20.90;;;;;;6258173;28;20242;-70
2022/09/02 10:01:58;;;;;;;2.55;1.40;;;38.50;21.90;;;;;;6274061;28;20230;-70
2022/09/02 10:05:16;;;;;;;2.00;1.80;;;36.40;23.90;;;;;;6274070;28;20219;-70
2022/09/02 10:08:23;;;;;;;2.20;1.75;;;35.40;24.30;;;;;;6274107;28;20227;-70
2022/09/02 10:11:28;;;;;;;1.90;1.80;;;34.70;25.60;;;;;;6274481;28;20242;-70
2022/09/02 10:14:36;;;;;;;3.35;2.05;;;33.80;26.40;;;;;;6274027;28;20226;-69
2022/09/02 10:17:50;;;;;;;2.38;1.48;;;32.00;27.50;;;;;;6261191;28;20211;-69
2022/09/02 10:21:01;;;;;;;1.52;1.33;;;31.20;28.40;;;;;;6283368;28;20204;-69
2022/09/02 10:24:35;;;;;;;2.85;1.70;;;30.50;29.10;;;;;;6278252;28;20231;-70
2022/09/02 10:27:49;;;;;;;1.60;1.50;;;29.50;29.60;;;;;;6269046;28;20236;-70
2022/09/02 10:31:00;;;;;;;2.20;1.50;;;29.10;30.70;;;;;;6272034;28;20224;-70
2022/09/02 10:34:15;;;;;;;2.73;1.63;;;28.20;31.80;;;;;;6275672;28;20223;-70
2022/09/02 10:37:22;;;;;;;1.50;1.40;;;28.00;32.20;;;;;;6265037;28;20249;-69
2022/09/02 10:40:36;;;;;;;4.37;1.47;;;27.90;32.10;;;;;;6269709;28;20230;-71
2022/09/02 10:43:57;;;;;;;2.20;1.93;;;27.80;32.10;;;;;;6278815;28;20254;-70
2022/09/02 10:47:03;;;;;;;1.90;1.40;;;27.50;32.70;;;;;;6277903;28;20258;-71
2022/09/02 10:50:19;;;;;;;1.60;1.50;;;27.30;33.20;;;;;;6278675;28;20249;-70
2022/09/02 10:53:38;;;;;;;1.83;1.40;;;27.20;34.00;;;;;;6278571;28;20655;-70
2022/09/02 10:56:49;;;;;;;1.73;1.23;;;27.20;33.60;;;;;;6281298;28;20229;-70
2022/09/02 11:00:01;;;;;;;1.27;1.17;;;27.30;32.90;;;;;;6273243;28;20622;-70
2022/09/02 11:03:13;;;;;;;2.10;1.90;;;27.70;33.70;;;;;;6282580;28;20238;-70
2022/09/02 11:06:21;;;;;;;1.60;1.50;;;28.20;34.40;;;;;;6281064;28;20231;-70
2022/09/02 11:09:31;;;;;;;3.70;1.70;;;28.50;33.00;;;;;;6279023;28;20223;-70
2022/09/02 11:12:40;;;;;;;1.83;1.70;;;28.40;32.30;;;;;;6269692;28;20550;-71
2022/09/02 11:15:48;;;;;;;4.47;4.07;;;27.70;33.10;;;;;;6277483;28;20237;-70
2022/09/02 11:18:58;;;;;;;2.53;2.00;;;27.20;34.80;;;;;;6277786;28;20227;-69
2022/09/02 11:22:12;;;;;;;4.60;1.73;;;27.40;33.90;;;;;;6277928;28;20255;-69
2022/09/02 11:25:21;;;;;;;1.93;1.60;;;27.10;34.10;;;;;;6278360;28;20556;-69
2022/09/02 11:28:32;;;;;;;2.20;1.40;;;27.00;34.60;;;;;;6277466;28;20227;-69
2022/09/02 11:31:41;;;;;;;1.97;1.70;;;27.20;34.30;;;;;;6277467;28;20231;-69
2022/09/02 11:34:48;;;;;;;3.63;2.10;;;27.40;34.20;;;;;;6271951;28;20700;-68
2022/09/02 11:37:56;;;;;;;1.77;1.50;;;27.50;34.20;;;;;;6276620;28;20566;-68
2022/09/02 11:41:26;;;;;;;1.47;1.10;;;27.70;33.90;;;;;;6255064;28;20228;-68
2022/09/02 11:45:22;;;;;;;1.80;1.60;;;27.70;33.70;;;;;;6250399;28;20235;-69
2022/09/02 11:49:08;;;;;;;2.43;1.50;;;27.50;33.70;;;;;;6250896;28;20699;-71
2022/09/02 11:52:28;;;;;;;79.43;10.90;;;27.70;33.60;;;;;;6201754;28;20878;-69
2022/09/02 11:55:36;;;;;;;1.63;1.53;;;28.00;33.40;;;;;;6249317;28;20232;-68
2022/09/02 11:58:42;;;;;;;1.83;1.50;;;28.50;32.50;;;;;;6251147;28;20236;-68
2022/09/02 12:01:51;;;;;;;3.20;1.73;;;28.80;32.10;;;;;;6251250;28;20231;-68
2022/09/02 12:05:40;;;;;;;2.20;1.47;;;29.40;32.00;;;;;;6241965;28;20236;-68
2022/09/02 12:09:06;;;;;;;2.93;2.37;;;30.00;31.30;;;;;;6251648;28;20295;-69
2022/09/02 12:12:12;;;;;;;3.17;2.97;;;30.10;30.60;;;;;;6251972;28;20299;-69
2022/09/02 12:15:18;;;;;;;3.17;2.10;;;30.00;30.20;;;;;;6251937;28;20228;-68
2022/09/02 12:18:30;;;;;;;4.27;1.90;;;29.70;30.60;;;;;;6251472;28;20832;-68
2022/09/02 12:21:35;;;;;;;2.03;1.50;;;29.50;31.90;;;;;;6251860;28;20224;-68
2022/09/02 12:24:50;;;;;;;2.15;1.48;;;29.90;32.00;;;;;;6251453;28;20241;-68
2022/09/02 12:28:16;;;;;;;3.07;2.53;;;30.30;30.60;;;;;;6251827;28;20228;-69
2022/09/02 12:31:41;;;;;;;2.10;1.50;;;30.30;30.10;;;;;;6251324;28;20242;-70
2022/09/02 12:35:08;;;;;;;2.13;1.30;;;29.30;30.60;;;;;;6251131;28;20289;-70
2022/09/02 12:38:30;;;;;;;2.63;1.70;;;29.40;31.80;;;;;;6251137;28;20224;-69
2022/09/02 12:41:40;;;;;;;2.23;1.60;;;29.50;32.00;;;;;;6251152;28;20230;-70
2022/09/02 12:44:48;;;;;;;1.90;1.60;;;29.90;30.90;;;;;;6250473;28;20232;-68
2022/09/02 12:47:59;;;;;;;2.25;2.05;;;30.30;31.40;;;;;;6250918;28;20212;-68
2022/09/02 12:51:03;;;;;;;2.20;1.42;;;30.50;31.00;;;;;;6251228;28;20238;-68
2022/09/02 12:54:06;;;;;;;2.95;1.30;;;30.50;30.90;;;;;;6251039;28;20224;-70
2022/09/02 12:57:10;;;;;;;1.75;1.30;;;30.40;31.40;;;;;;6250940;28;20686;-70
2022/09/02 13:00:18;;;;;;;3.63;1.63;;;30.10;31.10;;;;;;6253197;28;20554;-69
2022/09/02 13:03:41;;;;;;;2.67;1.52;;;30.30;31.60;;;;;;6253785;28;20253;-70
2022/09/02 13:07:12;;;;;;;6.70;1.63;;;30.30;31.70;;;;;;6251737;28;20232;-69
2022/09/02 13:10:32;;;;;;;4.50;1.80;;;30.50;31.20;;;;;;6254224;28;20239;-71
2022/09/02 13:14:14;;;;;;;2.35;1.80;;;30.30;30.90;;;;;;6250494;28;20224;-69
2022/09/02 13:17:44;;;;;;;2.03;1.77;;;30.10;31.00;;;;;;6250393;28;20664;-69
2022/09/02 13:21:04;;;;;;;2.37;1.60;;;29.70;31.10;;;;;;6250730;28;20212;-69
2022/09/02 13:24:56;;;;;;;1.37;1.27;;;28.80;32.70;;;;;;6250236;28;20250;-69
2022/09/02 13:28:46;;;;;;;1.53;1.43;;;28.90;33.40;;;;;;6250214;28;20247;-70
2022/09/02 13:32:00;;;;;;;1.97;1.57;;;28.80;33.40;;;;;;6250020;28;20224;-70
2022/09/02 13:35:06;;;;;;;1.43;1.30;;;28.70;33.50;;;;;;6250327;28;20243;-69
2022/09/02 13:38:10;;;;;;;1.80;1.70;;;28.50;33.70;;;;;;6250257;28;20232;-70
2022/09/02 13:41:29;;;;;;;2.53;1.80;;;28.20;34.00;;;;;;6249891;28;20743;-70
2022/09/02 13:44:33;;;;;;;2.40;1.67;;;28.00;34.90;;;;;;6250046;28;20236;-68
2022/09/02 13:47:37;;;;;;;1.80;1.33;;;27.50;35.10;;;;;;6250011;28;20547;-68
2022/09/02 13:50:43;;;;;;;2.73;1.63;;;27.30;36.30;;;;;;6250145;28;20770;-69
2022/09/02 13:53:49;;;;;;;2.63;1.40;;;26.70;37.40;;;;;;6249989;28;20603;-69
2022/09/02 13:57:19;;;;;;;1.60;1.40;;;26.70;37.30;;;;;;6251596;28;20227;-69
2022/09/02 14:00:29;;;;;;;2.20;1.50;;;26.80;37.30;;;;;;6254978;28;20540;-69
2022/09/02 14:03:33;;;;;;;1.57;1.47;;;26.80;37.40;;;;;;6255403;28;20228;-69
2022/09/02 14:06:40;;;;;;;2.10;1.50;;;26.90;37.30;;;;;;6255110;28;20242;-70
2022/09/02 14:09:45;;;;;;;2.23;1.60;;;26.60;38.20;;;;;;6255019;28;20228;-70
2022/09/02 14:12:50;;;;;;;1.53;1.43;;;26.60;37.90;;;;;;6254943;28;20232;-69
2022/09/02 14:15:54;;;;;;;4.33;1.77;;;26.60;38.40;;;;;;6254527;28;20237;-70
2022/09/02 14:19:05;;;;;;;3.50;1.80;;;26.20;38.40;;;;;;6254643;28;20228;-70
2022/09/02 14:22:22;;;;;;;1.70;1.20;;;25.90;39.20;;;;;;6254604;28;20265;-70
2022/09/02 14:25:27;;;;;;;2.03;1.20;;;25.90;39.30;;;;;;6254470;28;20637;-69
2022/09/02 14:28:34;;;;;;;1.57;1.47;;;25.40;39.80;;;;;;6256706;28;20235;-69
2022/09/02 14:31:37;;;;;;;1.80;1.53;;;25.20;40.00;;;;;;6254671;28;20228;-69
2022/09/02 14:34:43;;;;;;;3.67;1.80;;;24.80;39.70;;;;;;6254437;28;20231;-69
2022/09/02 14:37:51;;;;;;;1.80;1.70;;;24.60;40.40;;;;;;6256706;28;20231;-69
2022/09/02 14:41:10;;;;;;;1.50;1.40;;;24.70;40.50;;;;;;6267981;28;20231;-69
2022/09/02 14:44:23;;;;;;;1.73;1.63;;;25.00;39.90;;;;;;6267922;28;20219;-69
2022/09/02 14:47:27;;;;;;;2.50;1.60;;;25.20;40.00;;;;;;6266282;28;20232;-68
2022/09/02 14:50:34;;;;;;;2.17;1.47;;;25.40;39.10;;;;;;6264046;28;20307;-69
2022/09/02 14:53:43;;;;;;;1.97;1.73;;;25.60;39.10;;;;;;6261407;28;20220;-69
2022/09/02 14:56:50;;;;;;;2.53;1.80;;;25.80;39.50;;;;;;6274879;28;20243;-69
2022/09/02 14:59:56;;;;;;;5.03;1.40;;;25.30;40.70;;;;;;6275306;28;20187;-69
2022/09/02 15:02:59;;;;;;;1.87;1.60;;;25.10;41.00;;;;;;6275013;28;20231;-70
2022/09/02 15:06:03;;;;;;;1.87;1.77;;;25.30;41.10;;;;;;6263993;28;20244;-69
2022/09/02 15:09:07;;;;;;;1.50;1.40;;;25.20;40.80;;;;;;6267198;28;20808;-69
2022/09/02 15:12:11;;;;;;;1.73;1.63;;;25.20;40.70;;;;;;6266769;28;20223;-69
2022/09/02 15:15:16;;;;;;;1.83;1.43;;;25.50;40.70;;;;;;6252497;28;20232;-69
2022/09/02 15:18:19;;;;;;;4.63;1.83;;;25.70;40.70;;;;;;6259696;28;20547;-69
2022/09/02 15:21:23;;;;;;;2.70;2.23;;;25.70;40.30;;;;;;6258942;28;20239;-68
2022/09/02 15:24:26;;;;;;;1.47;1.37;;;25.80;39.90;;;;;;6261199;28;20241;-68
2022/09/02 15:27:29;;;;;;;2.60;1.70;;;25.90;39.60;;;;;;6260622;28;20219;-70
2022/09/02 15:30:35;;;;;;;1.90;1.70;;;25.60;40.30;;;;;;6265237;28;20228;-69
2022/09/02 15:33:39;;;;;;;1.60;1.50;;;25.70;40.30;;;;;;6264014;28;20722;-68
2022/09/02 15:36:42;;;;;;;2.33;1.73;;;25.70;40.70;;;;;;6264628;28;20745;-69
2022/09/02 15:39:46;;;;;;;2.00;1.73;;;25.70;40.30;;;;;;6262403;28;20231;-68
2022/09/02 15:42:49;;;;;;;3.37;1.77;;;25.70;40.40;;;;;;6273528;28;20668;-68
2022/09/02 15:45:53;;;;;;;1.60;1.50;;;25.70;40.40;;;;;;6263979;28;20230;-68
2022/09/02 15:49:01;;;;;;;2.70;1.53;;;25.60;41.00;;;;;;6270869;28;20238;-69
2022/09/02 15:52:05;;;;;;;1.57;1.47;;;25.10;41.40;;;;;;6273600;28;20230;-68
2022/09/02 15:55:08;;;;;;;1.70;1.53;;;24.70;43.20;;;;;;6276663;28;20310;-67
2022/09/02 15:58:11;;;;;;;1.50;1.30;;;24.50;43.70;;;;;;6276694;28;20215;-70
2022/09/02 16:01:16;;;;;;;3.70;1.53;;;24.50;44.10;;;;;;6273415;28;20227;-68
2022/09/02 16:04:25;;;;;;;2.30;1.60;;;24.20;45.10;;;;;;6268562;28;20225;-67
2022/09/02 16:07:29;;;;;;;3.40;1.60;;;24.50;45.00;;;;;;6264676;28;20220;-67
2022/09/02 16:10:35;;;;;;;3.83;1.77;;;24.40;45.20;;;;;;6276274;28;20228;-69
2022/09/02 16:13:38;;;;;;;3.53;1.70;;;24.20;45.40;;;;;;6276471;28;20742;-68
2022/09/02 16:16:44;;;;;;;3.13;2.03;;;24.20;45.50;;;;;;6279025;28;20232;-69